createdAt,value
2023-03-29T00:01:58.255Z,45.90
2023-03-29T00:04:27.656Z,46.93
2023-03-29T00:06:56.230Z,48.80
2023-03-29T00:09:26.718Z,47.20
2023-03-29T00:11:54.685Z,49.57
2023-03-29T00:14:23.967Z,51.20
2023-03-29T00:16:52.016Z,48.03
2023-03-29T00:19:20.072Z,51.33
2023-03-29T00:21:48.036Z,50.23
2023-03-29T00:24:16.215Z,48.50
2023-03-29T00:26:43.963Z,48.13
2023-03-29T00:29:11.930Z,51.00
2023-03-29T00:31:41.601Z,51.17
2023-03-29T00:34:09.601Z,49.03
2023-03-29T00:36:40.483Z,48.83
2023-03-29T00:39:10.139Z,49.50
2023-03-29T00:41:38.058Z,49.50
2023-03-29T00:44:06.311Z,44.37
2023-03-29T00:46:34.984Z,45.53
2023-03-29T00:49:07.136Z,47.07
2023-03-29T00:51:36.618Z,43.40
2023-03-29T00:54:05.099Z,35.40
2023-03-29T00:56:35.339Z,42.60
2023-03-29T00:59:05.289Z,39.23
2023-03-29T01:01:35.034Z,36.47
2023-03-29T01:04:06.689Z,37.50
2023-03-29T01:06:35.303Z,34.20
2023-03-29T01:09:04.466Z,39.57
2023-03-29T01:11:33.817Z,34.30
2023-03-29T01:14:04.273Z,33.87
2023-03-29T01:16:33.100Z,34.70
2023-03-29T01:19:02.344Z,32.07
2023-03-29T01:21:33.428Z,35.43
2023-03-29T01:24:32.275Z,28.97
2023-03-29T01:27:03.456Z,30.20
2023-03-29T01:29:34.918Z,29.07
2023-03-29T01:32:05.300Z,28.10
2023-03-29T01:34:36.407Z,28.37
2023-03-29T01:37:05.960Z,27.03
2023-03-29T01:39:35.002Z,29.83
2023-03-29T01:42:16.602Z,25.03
2023-03-29T01:44:49.063Z,24.50
2023-03-29T01:47:20.822Z,23.00
2023-03-29T01:49:52.307Z,22.03
2023-03-29T01:52:21.725Z,23.50
2023-03-29T01:54:51.315Z,23.57
2023-03-29T01:57:20.123Z,21.43
2023-03-29T01:59:49.376Z,19.70
2023-03-29T02:02:17.610Z,21.30
2023-03-29T02:04:49.966Z,19.90
2023-03-29T02:07:18.477Z,20.50
2023-03-29T02:09:46.410Z,17.47
2023-03-29T02:12:14.703Z,16.10
2023-03-29T02:14:42.842Z,19.33
2023-03-29T02:17:17.430Z,17.27
2023-03-29T02:19:50.210Z,17.37
2023-03-29T02:22:21.176Z,16.37
2023-03-29T02:24:48.920Z,16.00
2023-03-29T02:27:17.528Z,14.57
2023-03-29T02:29:46.843Z,13.20
2023-03-29T02:32:17.981Z,16.37
2023-03-29T02:34:47.687Z,16.30
2023-03-29T02:37:18.843Z,15.53
2023-03-29T02:39:47.695Z,11.47
2023-03-29T02:42:17.449Z,13.37
2023-03-29T02:44:46.574Z,16.17
2023-03-29T02:47:17.188Z,11.73
2023-03-29T02:49:45.672Z,13.13
2023-03-29T02:52:15.322Z,11.37
2023-03-29T02:54:43.724Z,15.27
2023-03-29T02:57:12.321Z,11.00
2023-03-29T02:59:41.056Z,10.70
2023-03-29T03:02:09.075Z,11.60
2023-03-29T03:04:38.884Z,10.30
2023-03-29T03:07:06.776Z,10.73
2023-03-29T03:09:35.478Z,10.83
2023-03-29T03:12:03.245Z,10.50
2023-03-29T03:14:31.408Z,10.00
2023-03-29T03:16:59.639Z,10.47
2023-03-29T03:19:28.487Z,9.80
2023-03-29T03:21:57.804Z,9.43
2023-03-29T03:24:25.976Z,8.77
2023-03-29T03:26:54.533Z,8.67
2023-03-29T03:29:22.709Z,8.03
2023-03-29T03:31:53.914Z,7.37
2023-03-29T03:34:22.123Z,6.40
2023-03-29T03:36:50.836Z,7.87
2023-03-29T03:39:20.325Z,8.53
2023-03-29T03:41:48.606Z,7.10
2023-03-29T03:44:16.588Z,8.00
2023-03-29T03:46:44.906Z,7.40
2023-03-29T03:49:12.834Z,11.00
2023-03-29T03:51:42.360Z,5.97
2023-03-29T03:54:10.158Z,7.03
2023-03-29T03:56:39.577Z,7.63
2023-03-29T03:59:08.003Z,7.40
2023-03-29T04:01:37.705Z,6.40
2023-03-29T04:04:06.046Z,7.17
2023-03-29T04:06:34.374Z,7.73
2023-03-29T04:09:02.910Z,6.20
2023-03-29T04:11:30.808Z,8.63
2023-03-29T04:14:00.524Z,10.57
2023-03-29T04:16:28.808Z,9.67
2023-03-29T04:18:56.920Z,7.13
2023-03-29T04:21:24.910Z,7.00
2023-03-29T04:23:53.457Z,8.63
2023-03-29T04:26:22.244Z,8.83
2023-03-29T04:28:50.245Z,7.23
2023-03-29T04:31:19.783Z,7.17
2023-03-29T04:33:48.203Z,7.07
2023-03-29T04:36:16.853Z,5.53
2023-03-29T04:38:47.787Z,6.13
2023-03-29T04:41:16.771Z,6.47
2023-03-29T04:43:46.476Z,6.33
2023-03-29T04:46:15.392Z,6.97
2023-03-29T04:48:44.867Z,5.37
2023-03-29T04:51:13.335Z,6.03
2023-03-29T04:53:41.179Z,6.20
2023-03-29T04:56:10.418Z,6.13
2023-03-29T04:58:38.153Z,7.50
2023-03-29T05:01:06.917Z,7.20
2023-03-29T05:03:35.595Z,7.10
2023-03-29T05:06:07.310Z,5.87
2023-03-29T05:08:38.333Z,8.60
2023-03-29T05:11:08.215Z,7.07
2023-03-29T05:13:36.220Z,5.33
2023-03-29T05:16:04.465Z,7.67
2023-03-29T05:18:33.146Z,8.20
2023-03-29T05:21:01.242Z,5.73
2023-03-29T05:23:30.664Z,6.00
2023-03-29T05:25:58.898Z,5.33
2023-03-29T05:28:27.656Z,6.53
2023-03-29T05:31:02.136Z,5.23
2023-03-29T05:33:31.080Z,6.67
2023-03-29T05:36:01.805Z,5.90
2023-03-29T05:38:33.251Z,5.20
2023-03-29T05:41:01.254Z,4.30
2023-03-29T05:43:29.423Z,4.40
2023-03-29T05:45:57.389Z,5.70
2023-03-29T05:48:25.322Z,4.87
2023-03-29T05:50:54.510Z,4.80
2023-03-29T05:53:24.644Z,6.80
2023-03-29T05:55:54.568Z,4.20
2023-03-29T05:58:22.454Z,5.50
2023-03-29T06:00:51.443Z,4.77
2023-03-29T06:03:21.828Z,5.10
2023-03-29T06:05:50.999Z,4.10
2023-03-29T06:08:19.164Z,5.33
2023-03-29T06:10:47.176Z,4.67
2023-03-29T06:13:16.471Z,6.60
2023-03-29T06:15:45.122Z,4.30
2023-03-29T06:18:13.042Z,8.33
2023-03-29T06:20:41.419Z,4.97
2023-03-29T06:23:09.901Z,4.40
2023-03-29T06:25:37.943Z,4.70
2023-03-29T06:28:05.970Z,4.30
2023-03-29T06:30:35.007Z,4.17
2023-03-29T06:33:02.795Z,5.33
2023-03-29T06:35:31.290Z,3.60
2023-03-29T06:37:58.956Z,4.13
2023-03-29T06:40:27.282Z,4.20
2023-03-29T06:42:58.289Z,6.80
2023-03-29T06:45:28.806Z,4.07
2023-03-29T06:47:59.006Z,4.00
2023-03-29T06:50:27.099Z,4.17
2023-03-29T06:52:55.283Z,4.30
2023-03-29T06:55:23.444Z,4.20
2023-03-29T06:57:51.775Z,3.90
2023-03-29T07:00:23.252Z,4.67
2023-03-29T07:02:51.485Z,3.83
2023-03-29T07:05:21.821Z,4.10
2023-03-29T07:07:57.204Z,4.40
2023-03-29T07:10:26.169Z,4.07
2023-03-29T07:12:53.923Z,3.77
2023-03-29T07:15:22.293Z,3.77
2023-03-29T07:17:50.443Z,3.77
2023-03-29T07:20:19.782Z,3.70
2023-03-29T07:22:48.096Z,3.57
2023-03-29T07:25:17.179Z,4.57
2023-03-29T07:27:44.922Z,3.30
2023-03-29T07:30:16.526Z,8.50
2023-03-29T07:32:45.617Z,9.83
2023-03-29T07:35:16.301Z,13.63
2023-03-29T07:37:46.424Z,12.63
2023-03-29T07:40:16.413Z,14.27
2023-03-29T07:42:49.602Z,16.17
2023-03-29T07:45:17.903Z,12.23
2023-03-29T07:47:46.415Z,17.43
2023-03-29T07:50:15.117Z,14.03
2023-03-29T07:52:43.436Z,19.17
2023-03-29T07:55:14.086Z,19.30
2023-03-29T07:57:43.724Z,18.70
2023-03-29T08:00:15.136Z,19.63
2023-03-29T08:02:44.393Z,14.10
2023-03-29T08:05:12.934Z,12.43
2023-03-29T08:07:41.385Z,15.77
2023-03-29T08:10:10.480Z,9.77
2023-03-29T08:12:41.251Z,13.73
2023-03-29T08:15:09.678Z,18.30
2023-03-29T08:17:37.873Z,13.43
2023-03-29T08:20:06.934Z,9.80
2023-03-29T08:22:34.984Z,11.43
2023-03-29T08:25:02.694Z,11.00
2023-03-29T08:27:30.599Z,7.17
2023-03-29T08:29:59.924Z,13.23
2023-03-29T08:32:27.812Z,6.87
2023-03-29T08:34:56.006Z,7.53
2023-03-29T08:37:25.727Z,6.80
2023-03-29T08:39:53.912Z,7.30
2023-03-29T08:42:30.997Z,13.93
2023-03-29T08:45:05.975Z,8.23
2023-03-29T08:47:37.811Z,11.23
2023-03-29T08:50:06.626Z,13.40
2023-03-29T08:52:36.772Z,9.27
2023-03-29T08:55:06.593Z,11.90
2023-03-29T08:57:36.018Z,11.50
2023-03-29T09:00:06.863Z,6.27
2023-03-29T09:02:36.033Z,9.57
2023-03-29T09:05:09.296Z,6.90
2023-03-29T09:07:37.563Z,7.47
2023-03-29T09:10:05.977Z,6.30
2023-03-29T09:12:41.219Z,5.90
2023-03-29T09:15:15.536Z,4.87
2023-03-29T09:17:54.458Z,9.50
2023-03-29T09:20:28.192Z,6.67
2023-03-29T09:23:02.851Z,5.27
2023-03-29T09:25:36.323Z,9.97
2023-03-29T09:28:15.295Z,6.07
2023-03-29T09:30:47.100Z,12.37
2023-03-29T09:33:21.167Z,6.27
2023-03-29T09:35:50.947Z,7.80
2023-03-29T09:38:18.738Z,6.77
2023-03-29T09:40:47.955Z,5.90
2023-03-29T09:43:18.345Z,9.23
2023-03-29T09:45:50.545Z,7.13
2023-03-29T09:48:19.267Z,3.97
2023-03-29T09:50:47.709Z,5.73
2023-03-29T09:53:15.925Z,4.63
2023-03-29T09:55:44.348Z,4.13
2023-03-29T09:58:14.470Z,5.50
2023-03-29T10:00:42.619Z,9.70
2023-03-29T10:03:18.854Z,5.73
2023-03-29T10:05:47.194Z,5.30
2023-03-29T10:08:19.742Z,4.80
2023-03-29T10:10:48.057Z,5.37
2023-03-29T10:13:23.020Z,9.27
2023-03-29T10:16:03.461Z,5.67
2023-03-29T10:18:33.133Z,8.77
2023-03-29T10:21:02.526Z,9.67
2023-03-29T10:23:32.628Z,4.83
2023-03-29T10:26:00.536Z,9.00
2023-03-29T10:28:28.711Z,8.63
2023-03-29T10:30:57.697Z,9.60
2023-03-29T10:33:25.845Z,8.63
2023-03-29T10:35:56.970Z,5.30
2023-03-29T10:38:27.823Z,4.70
2023-03-29T10:40:56.145Z,8.87
2023-03-29T10:43:24.718Z,5.97
2023-03-29T10:45:53.733Z,6.00
2023-03-29T10:48:25.750Z,6.70
2023-03-29T10:50:55.743Z,4.47
2023-03-29T10:53:26.189Z,4.17
2023-03-29T10:55:59.126Z,6.07
2023-03-29T10:58:33.398Z,6.50
2023-03-29T11:01:01.879Z,3.80
2023-03-29T11:03:44.772Z,8.17
2023-03-29T11:06:16.545Z,4.60
2023-03-29T11:08:50.171Z,6.00
2023-03-29T11:11:58.496Z,3.80
2023-03-29T11:14:39.768Z,3.80
2023-03-29T11:17:12.917Z,6.07
2023-03-29T11:19:50.342Z,4.27
2023-03-29T11:22:21.312Z,5.57
2023-03-29T11:24:56.834Z,6.77
2023-03-29T11:27:30.031Z,4.50
2023-03-29T11:30:03.771Z,4.33
2023-03-29T11:32:35.538Z,9.30
2023-03-29T11:35:10.197Z,3.43
2023-03-29T11:37:43.162Z,14.43
2023-03-29T11:40:28.740Z,5.90
2023-03-29T11:42:57.300Z,6.67
2023-03-29T11:45:28.536Z,4.33
2023-03-29T11:47:56.404Z,5.83
2023-03-29T11:50:25.679Z,7.03
2023-03-29T11:52:56.666Z,5.90
2023-03-29T11:55:26.234Z,4.30
2023-03-29T11:57:56.595Z,5.30
2023-03-29T12:00:26.116Z,5.50
2023-03-29T12:02:56.725Z,4.30
2023-03-29T12:05:28.137Z,6.30
2023-03-29T12:07:59.169Z,4.37
2023-03-29T12:10:30.289Z,4.93
2023-03-29T12:13:02.064Z,4.77
2023-03-29T12:15:32.477Z,4.97
2023-03-29T12:18:04.866Z,7.40
2023-03-29T12:20:33.478Z,8.40
2023-03-29T12:23:02.618Z,8.87
2023-03-29T12:25:31.880Z,5.60
2023-03-29T12:28:21.103Z,6.50
2023-03-29T12:30:53.476Z,5.90
2023-03-29T12:33:49.938Z,5.00
2023-03-29T12:36:44.667Z,4.43
2023-03-29T12:39:15.257Z,5.47
2023-03-29T12:41:45.657Z,5.17
2023-03-29T12:44:13.456Z,7.37
2023-03-29T12:46:44.360Z,5.53
2023-03-29T12:49:14.101Z,4.87
2023-03-29T12:51:42.416Z,5.33
2023-03-29T12:54:14.837Z,7.10
2023-03-29T12:56:43.463Z,6.13
2023-03-29T12:59:19.848Z,7.30
2023-03-29T13:01:58.931Z,4.30
2023-03-29T13:04:37.256Z,9.30
2023-03-29T13:07:05.967Z,3.87
2023-03-29T13:09:38.023Z,5.33
2023-03-29T13:12:08.855Z,4.50
2023-03-29T13:14:37.730Z,7.93
2023-03-29T13:17:17.722Z,4.50
2023-03-29T13:19:48.211Z,4.03
2023-03-29T13:22:21.822Z,4.23
2023-03-29T13:25:06.058Z,4.10
2023-03-29T13:27:39.780Z,3.70
2023-03-29T13:30:27.643Z,6.33
2023-03-29T13:33:01.180Z,8.23
2023-03-29T13:35:35.829Z,3.70
2023-03-29T13:38:08.059Z,4.70
2023-03-29T13:40:46.858Z,4.50
2023-03-29T13:43:22.570Z,4.50
2023-03-29T13:46:08.217Z,4.40
2023-03-29T13:48:50.269Z,4.83
2023-03-29T13:51:24.360Z,5.90
2023-03-29T13:53:53.850Z,5.60
2023-03-29T13:56:25.651Z,5.00
2023-03-29T13:58:54.478Z,4.63
2023-03-29T14:01:27.360Z,3.90
2023-03-29T14:03:55.095Z,6.27
2023-03-29T14:06:24.317Z,5.30
2023-03-29T14:08:52.115Z,4.70
2023-03-29T14:11:23.206Z,8.30
2023-03-29T14:13:53.690Z,5.90
2023-03-29T14:16:21.441Z,4.70
2023-03-29T14:18:51.442Z,6.00
2023-03-29T14:21:19.627Z,4.90
2023-03-29T14:23:48.602Z,4.37
2023-03-29T14:26:17.756Z,5.73
2023-03-29T14:28:47.663Z,5.27
2023-03-29T14:31:19.634Z,4.30
2023-03-29T14:33:48.526Z,4.63
2023-03-29T14:36:17.613Z,5.83
2023-03-29T14:38:46.091Z,4.40
2023-03-29T14:41:14.200Z,4.80
2023-03-29T14:43:42.157Z,4.37
2023-03-29T14:46:12.027Z,6.00
2023-03-29T14:48:39.891Z,4.03
2023-03-29T14:51:08.040Z,5.03
2023-03-29T14:53:37.042Z,4.80
2023-03-29T14:56:05.222Z,4.60
2023-03-29T14:58:34.586Z,4.87
2023-03-29T15:01:05.685Z,4.40
2023-03-29T15:03:44.112Z,8.17
2023-03-29T15:06:12.244Z,4.40
2023-03-29T15:08:45.777Z,4.53
2023-03-29T15:11:22.158Z,3.73
2023-03-29T15:13:50.726Z,4.60
2023-03-29T15:16:20.898Z,5.33
2023-03-29T15:18:50.759Z,4.30
2023-03-29T15:21:19.721Z,5.03
2023-03-29T15:23:50.080Z,3.43
2023-03-29T15:26:24.359Z,5.60
2023-03-29T15:28:55.619Z,6.10
2023-03-29T15:31:27.450Z,4.87
2023-03-29T15:34:06.950Z,4.40
2023-03-29T15:36:40.506Z,6.27
2023-03-29T15:39:11.170Z,4.87
2023-03-29T15:41:39.079Z,5.67
2023-03-29T15:44:07.628Z,5.27
2023-03-29T15:46:35.606Z,4.40
2023-03-29T15:49:05.428Z,4.30
2023-03-29T15:51:33.347Z,6.77
2023-03-29T15:54:01.527Z,4.30
2023-03-29T15:56:29.296Z,5.43
2023-03-29T15:58:57.044Z,6.33
2023-03-29T16:01:34.254Z,5.67
2023-03-29T16:04:03.948Z,3.80
2023-03-29T16:06:32.170Z,4.17
2023-03-29T16:08:59.950Z,4.83
2023-03-29T16:11:28.529Z,4.77
2023-03-29T16:13:56.657Z,4.63
2023-03-29T16:16:24.875Z,5.30
2023-03-29T16:18:52.932Z,4.20
2023-03-29T16:21:23.216Z,4.10
2023-03-29T16:23:51.446Z,4.30
2023-03-29T16:26:19.450Z,4.60
2023-03-29T16:28:47.422Z,4.37
2023-03-29T16:31:15.813Z,5.43
2023-03-29T16:33:44.046Z,6.20
2023-03-29T16:36:12.017Z,4.73
2023-03-29T16:38:41.625Z,5.27
2023-03-29T16:41:12.267Z,4.37
2023-03-29T16:43:40.230Z,7.70
2023-03-29T16:46:09.286Z,6.90
2023-03-29T16:48:37.212Z,5.03
2023-03-29T16:51:05.266Z,5.83
2023-03-29T16:53:34.344Z,4.40
2023-03-29T16:56:03.592Z,5.83
2023-03-29T16:58:31.650Z,4.90
2023-03-29T17:00:59.422Z,9.57
2023-03-29T17:03:28.158Z,5.73
2023-03-29T17:05:58.020Z,4.67
2023-03-29T17:08:26.360Z,8.70
2023-03-29T17:10:55.482Z,5.53
2023-03-29T17:13:26.074Z,4.57
2023-03-29T17:15:54.389Z,8.33
2023-03-29T17:18:22.975Z,5.10
2023-03-29T17:20:51.224Z,4.70
2023-03-29T17:23:19.281Z,4.07
2023-03-29T17:25:47.458Z,5.70
2023-03-29T17:28:17.839Z,4.63
2023-03-29T17:30:47.081Z,5.97
2023-03-29T17:33:14.963Z,8.27
2023-03-29T17:35:43.250Z,3.90
2023-03-29T17:38:11.508Z,4.43
2023-03-29T17:40:39.492Z,7.20
2023-03-29T17:43:07.584Z,5.07
2023-03-29T17:45:35.700Z,5.47
2023-03-29T17:48:06.554Z,4.20
2023-03-29T17:50:34.796Z,7.00
2023-03-29T17:53:02.766Z,4.40
2023-03-29T17:55:30.754Z,4.43
2023-03-29T17:57:59.141Z,5.23
2023-03-29T18:00:27.645Z,4.73
2023-03-29T18:02:56.221Z,4.50
2023-03-29T18:05:26.037Z,13.87
2023-03-29T18:07:54.696Z,13.87
2023-03-29T18:10:22.760Z,14.67
2023-03-29T18:12:51.209Z,17.17
2023-03-29T18:15:19.673Z,15.40
2023-03-29T18:17:47.674Z,21.17
2023-03-29T18:20:16.331Z,19.40
2023-03-29T18:22:45.949Z,22.63
2023-03-29T18:25:14.568Z,19.80
2023-03-29T18:27:42.992Z,21.67
2023-03-29T18:30:14.256Z,18.83
2023-03-29T18:32:42.276Z,24.40
2023-03-29T18:35:12.045Z,20.23
2023-03-29T18:37:40.106Z,18.60
2023-03-29T18:40:10.895Z,19.53
2023-03-29T18:42:39.288Z,16.63
2023-03-29T18:45:09.384Z,16.90
2023-03-29T18:47:37.406Z,18.07
2023-03-29T18:50:06.084Z,16.93
2023-03-29T18:52:34.464Z,13.60
2023-03-29T18:55:02.597Z,12.70
2023-03-29T18:57:32.247Z,13.93
2023-03-29T19:00:00.475Z,13.40
2023-03-29T19:02:28.479Z,11.43
2023-03-29T19:04:56.775Z,11.03
2023-03-29T19:07:24.711Z,10.57
2023-03-29T19:09:53.252Z,13.27
2023-03-29T19:12:21.256Z,10.10
2023-03-29T19:14:50.723Z,11.47
2023-03-29T19:17:18.628Z,12.13
2023-03-29T19:19:46.565Z,10.53
2023-03-29T19:22:14.576Z,9.70
2023-03-29T19:24:42.889Z,12.63
2023-03-29T19:27:12.591Z,9.20
2023-03-29T19:29:41.149Z,11.37
2023-03-29T19:32:10.976Z,9.37
2023-03-29T19:34:38.992Z,11.17
2023-03-29T19:37:07.574Z,8.73
2023-03-29T19:39:35.976Z,10.33
2023-03-29T19:42:04.537Z,8.10
2023-03-29T19:44:33.702Z,8.03
2023-03-29T19:47:01.841Z,7.87
2023-03-29T19:49:31.739Z,9.70
2023-03-29T19:51:59.630Z,7.50
2023-03-29T19:54:27.767Z,8.40
2023-03-29T19:56:57.379Z,8.40
2023-03-29T19:59:25.672Z,7.73
2023-03-29T20:01:56.791Z,8.20
2023-03-29T20:04:25.552Z,7.77
2023-03-29T20:06:54.827Z,6.53
2023-03-29T20:09:22.839Z,7.03
2023-03-29T20:11:51.498Z,7.50
2023-03-29T20:14:19.540Z,7.70
2023-03-29T20:16:49.782Z,7.10
2023-03-29T20:19:24.588Z,8.17
2023-03-29T20:21:57.549Z,7.50
2023-03-29T20:24:25.914Z,10.40
2023-03-29T20:26:53.910Z,7.90
2023-03-29T20:29:22.703Z,7.23
2023-03-29T20:31:51.165Z,7.80
2023-03-29T20:34:19.292Z,7.70
2023-03-29T20:36:49.998Z,8.13
2023-03-29T20:39:19.694Z,6.20
2023-03-29T20:41:48.821Z,7.27
2023-03-29T20:44:18.542Z,6.93
2023-03-29T20:46:54.631Z,11.53
2023-03-29T20:49:27.949Z,7.07
2023-03-29T20:51:58.626Z,9.33
2023-03-29T20:54:28.324Z,7.23
2023-03-29T20:56:56.361Z,7.63
2023-03-29T20:59:24.436Z,8.43
2023-03-29T21:01:52.468Z,8.93
2023-03-29T21:04:20.723Z,12.47
2023-03-29T21:06:50.144Z,7.60
2023-03-29T21:09:19.152Z,7.13
2023-03-29T21:11:48.266Z,6.70
2023-03-29T21:14:19.619Z,8.63
2023-03-29T21:16:47.718Z,6.80
2023-03-29T21:19:16.082Z,11.27
2023-03-29T21:21:44.935Z,7.00
2023-03-29T21:24:14.398Z,7.00
2023-03-29T21:26:42.645Z,8.20
2023-03-29T21:29:12.792Z,8.77
2023-03-29T21:31:40.813Z,8.30
2023-03-29T21:34:09.027Z,7.33
2023-03-29T21:36:37.091Z,8.70
2023-03-29T21:39:05.092Z,9.80
2023-03-29T21:41:33.201Z,7.80
2023-03-29T21:44:01.113Z,8.30
2023-03-29T21:46:32.025Z,8.37
2023-03-29T21:48:59.995Z,7.37
2023-03-29T21:51:28.076Z,7.47
2023-03-29T21:53:58.194Z,7.37
2023-03-29T21:56:26.389Z,7.00
2023-03-29T21:58:54.610Z,6.97
2023-03-29T22:01:22.747Z,8.77
2023-03-29T22:03:52.608Z,7.33
2023-03-29T22:06:21.528Z,7.13
2023-03-29T22:08:55.897Z,12.93
2023-03-29T22:11:25.689Z,6.40
2023-03-29T22:13:54.029Z,6.53
2023-03-29T22:16:22.381Z,8.40
2023-03-29T22:18:52.638Z,6.80
2023-03-29T22:21:22.519Z,7.00
2023-03-29T22:23:51.278Z,6.67
2023-03-29T22:26:20.443Z,6.70
2023-03-29T22:28:48.300Z,6.80
2023-03-29T22:31:17.534Z,6.93
2023-03-29T22:33:45.473Z,6.70
2023-03-29T22:36:15.835Z,6.70
2023-03-29T22:38:43.844Z,6.30
2023-03-29T22:41:11.566Z,6.57
2023-03-29T22:43:39.394Z,8.17
2023-03-29T22:46:07.474Z,8.10
2023-03-29T22:48:35.604Z,6.97
2023-03-29T22:51:03.660Z,7.30
2023-03-29T22:53:33.174Z,6.77
2023-03-29T22:56:00.961Z,6.93
2023-03-29T22:58:29.374Z,7.87
2023-03-29T23:00:57.551Z,6.30
2023-03-29T23:03:25.371Z,7.50
2023-03-29T23:05:53.394Z,8.50
2023-03-29T23:08:21.535Z,7.37
2023-03-29T23:10:50.978Z,8.40
2023-03-29T23:13:23.578Z,6.90
2023-03-29T23:15:51.644Z,7.07
2023-03-29T23:18:21.244Z,7.40
2023-03-29T23:20:50.009Z,7.40
2023-03-29T23:23:18.110Z,8.23
2023-03-29T23:25:47.095Z,7.40
2023-03-29T23:28:21.664Z,7.73
2023-03-29T23:30:56.397Z,8.73
2023-03-29T23:33:25.573Z,7.63
2023-03-29T23:35:53.654Z,6.83
2023-03-29T23:38:21.873Z,6.90
2023-03-29T23:40:58.800Z,7.33
2023-03-29T23:43:31.746Z,9.10
2023-03-29T23:46:00.355Z,6.80
2023-03-29T23:48:28.715Z,7.40
2023-03-29T23:50:57.217Z,7.00
2023-03-29T23:53:25.410Z,7.73
2023-03-29T23:55:53.592Z,8.53
2023-03-29T23:58:21.707Z,9.00
